Airfield :







YOU CAN JOIN US ON...

 
LOGIN :

Register | Disclaimer

   EN    FR    IT 

 









Legend :    VFR   Marginal VFR   IFR   Intensive IFR   Very Intensive IFR
Visi :
Ceiling :
>= 8 km
>= 3000ft
5 to 8 km
1000 to 3000 ft
1500m to 5 km
500 to 1000 ft
800 to 1500m
200 to 500 ft
< 800m
< 200 ft
Symbols :   Thunderstorms  Fog  Heavy snow  Heavy precipitations  Wind > 20 kt







- Airport Elevation : 171 ft
- IATA code : KEF


BIKF - Keflavik International

CURRENT METAR :
  • 271200Z 19014KT 3500 -DZ BR SCT002 BKN005 OVC008 12/12 Q1023

EXPIRED METARs :
  • 271130Z 19014KT 6000 -DZ BR SCT002 BKN005 OVC010 11/11 Q1023
  • 271100Z 20013KT 1100 R19/1100U -DZ BR SCT002 BKN006 OVC010 11/11 Q1023
  • 271030Z 19017KT 0900 R19/P1500D FG DZ SCT002 BKN006 OVC010 11/11 Q1023
  • 271000Z 20010KT 9999 FEW004 BKN011 OVC027 12/11 Q1023
  • 270930Z 21010KT 9999 FEW003 BKN011 OVC027 11/11 Q1023

TAF TAF BIKF
Valid from the 27 at 12:00 until the 28 at 12:00 UTC


271044Z 2712/2812 20010KT 9000 -RADZ BR SCT005 BKN010 OVC020 TX12/2715Z TN10/2803Z
TEMPO 2712/2804 2500 RADZ BR BKN004 OVC010
BECMG 2804/2806 9999 SCT010 BKN020
TEMPO 2806/2812 5000 -DZ BR OVC010
No reported NOTAMs for that airfield.



MET'MAP, your aeronautical weather chart ! - Copyright ORBIFLY December 2007 - Disclaimer

ORBIFLY MET'MAP TEAM :

Programming & Development : Alexandra Zaïnal
Concept & Development : Baudouin d'Aumeries
Co-Development & Prog : Marc-Olivier Méhu
Technical & hardware support : Manuel Goepfert

Contact : metmap@orbifly.com




SOURCES & CREDITS :

   NOAA